createdAt,value
2019-06-20T00:00:56.322Z,22.22
2019-06-20T00:03:29.006Z,22.19
2019-06-20T00:06:01.476Z,22.15
2019-06-20T00:08:34.059Z,22.15
2019-06-20T00:11:06.566Z,22.12
2019-06-20T00:13:39.023Z,22.07
2019-06-20T00:16:12.608Z,22.06
2019-06-20T00:18:44.874Z,22.07
2019-06-20T00:21:17.966Z,22.06
2019-06-20T00:23:50.541Z,22.00
2019-06-20T00:26:22.674Z,21.97
2019-06-20T00:28:54.987Z,21.97
2019-06-20T00:31:27.254Z,21.97
2019-06-20T00:34:00.233Z,21.97
2019-06-20T00:36:32.609Z,21.98
2019-06-20T00:39:07.798Z,21.93
2019-06-20T00:41:40.418Z,21.92
2019-06-20T00:44:12.688Z,21.93
2019-06-20T00:46:44.860Z,21.88
2019-06-20T00:49:21.328Z,21.86
2019-06-20T00:51:53.705Z,21.82
2019-06-20T00:54:26.376Z,21.81
2019-06-20T00:56:58.646Z,21.82
2019-06-20T00:59:31.327Z,21.81
2019-06-20T01:02:03.695Z,21.85
2019-06-20T01:04:36.377Z,21.84
2019-06-20T01:07:09.066Z,21.79
2019-06-20T01:09:41.666Z,21.81
2019-06-20T01:12:14.006Z,21.82
2019-06-20T01:14:46.376Z,21.75
2019-06-20T01:17:18.854Z,21.74
2019-06-20T01:19:51.220Z,21.83
2019-06-20T01:22:25.027Z,21.79
2019-06-20T01:24:57.579Z,21.76
2019-06-20T01:27:30.185Z,21.83
2019-06-20T01:30:02.758Z,21.74
2019-06-20T01:32:36.558Z,21.67
2019-06-20T01:35:10.017Z,21.66
2019-06-20T01:37:42.127Z,21.62
2019-06-20T01:40:14.392Z,21.59
2019-06-20T01:42:46.668Z,21.59
2019-06-20T01:45:19.340Z,21.57
2019-06-20T01:47:51.846Z,21.59
2019-06-20T01:50:24.292Z,21.51
2019-06-20T01:52:56.793Z,21.50
2019-06-20T01:55:29.551Z,21.46
2019-06-20T01:58:02.120Z,21.44
2019-06-20T02:00:46.792Z,21.36
2019-06-20T02:03:20.387Z,21.40
2019-06-20T02:05:52.755Z,21.37
2019-06-20T02:08:25.027Z,21.36
2019-06-20T02:10:59.964Z,21.42
2019-06-20T02:13:32.538Z,21.42
2019-06-20T02:16:05.439Z,21.46
2019-06-20T02:18:37.592Z,21.46
2019-06-20T02:21:09.761Z,21.49
2019-06-20T02:23:42.224Z,21.43
2019-06-20T02:26:14.595Z,21.41
2019-06-20T02:28:46.969Z,21.45
2019-06-20T02:31:19.448Z,21.54
2019-06-20T02:33:51.825Z,21.52
2019-06-20T02:36:24.095Z,21.50
2019-06-20T02:38:56.565Z,21.59
2019-06-20T02:41:29.149Z,21.62
2019-06-20T02:44:01.929Z,21.64
2019-06-20T02:46:34.392Z,21.66
2019-06-20T02:49:06.973Z,21.64
2019-06-20T02:51:39.754Z,21.66
2019-06-20T02:54:12.413Z,21.72
2019-06-20T02:56:44.698Z,21.75
2019-06-20T02:59:17.172Z,21.87
2019-06-20T03:01:49.561Z,22.08
2019-06-20T03:04:22.123Z,22.11
2019-06-20T03:06:54.606Z,22.13
2019-06-20T03:09:27.686Z,22.25
2019-06-20T03:12:00.059Z,22.58
2019-06-20T03:14:44.978Z,23.13
2019-06-20T03:17:06.650Z,23.16
2019-06-20T03:19:39.121Z,23.41
2019-06-20T03:22:11.591Z,23.64
2019-06-20T03:24:44.186Z,24.12
2019-06-20T03:27:16.656Z,24.30
2019-06-20T03:29:48.914Z,24.79
2019-06-20T03:32:21.188Z,24.86
2019-06-20T03:34:53.561Z,25.38
2019-06-20T03:37:26.243Z,25.23
2019-06-20T03:39:58.400Z,25.07
2019-06-20T03:42:30.673Z,25.20
2019-06-20T03:45:03.049Z,25.45
2019-06-20T03:47:35.419Z,25.37
2019-06-20T03:50:08.515Z,25.30
2019-06-20T03:52:40.772Z,24.72
2019-06-20T03:55:13.807Z,24.66
2019-06-20T03:57:46.341Z,24.97
2019-06-20T04:00:21.891Z,24.81
2019-06-20T04:02:54.373Z,24.66
2019-06-20T04:05:28.881Z,24.72
2019-06-20T04:08:01.048Z,24.88
2019-06-20T04:10:34.038Z,24.96
2019-06-20T04:13:06.507Z,25.13
2019-06-20T04:15:38.987Z,25.04
2019-06-20T04:18:11.153Z,25.21
2019-06-20T04:20:43.618Z,25.31
2019-06-20T04:23:16.301Z,25.58
2019-06-20T04:25:48.671Z,25.21
2019-06-20T04:28:21.146Z,25.36
2019-06-20T04:30:53.638Z,25.26
2019-06-20T04:33:25.995Z,25.34
2019-06-20T04:35:58.464Z,25.48
2019-06-20T04:38:30.642Z,25.46
2019-06-20T04:41:03.215Z,25.50
2019-06-20T04:43:35.790Z,25.41
2019-06-20T04:46:09.799Z,25.21
2019-06-20T04:48:42.175Z,25.44
2019-06-20T04:51:14.652Z,25.73
2019-06-20T04:53:47.251Z,25.90
2019-06-20T04:56:19.607Z,26.32
2019-06-20T04:58:51.765Z,26.04
2019-06-20T05:01:24.234Z,26.34
2019-06-20T05:03:56.914Z,26.30
2019-06-20T05:06:29.191Z,26.06
2019-06-20T05:09:01.659Z,26.35
2019-06-20T05:11:35.359Z,26.63
2019-06-20T05:14:07.902Z,26.57
2019-06-20T05:16:41.132Z,26.55
2019-06-20T05:19:13.603Z,26.50
2019-06-20T05:21:45.771Z,26.81
2019-06-20T05:24:18.041Z,27.16
2019-06-20T05:26:50.418Z,27.01
2019-06-20T05:29:23.052Z,27.19
2019-06-20T05:31:55.164Z,26.92
2019-06-20T05:34:27.387Z,27.22
2019-06-20T05:36:59.597Z,27.44
2019-06-20T05:39:31.758Z,27.39
2019-06-20T05:42:04.644Z,27.68
2019-06-20T05:44:36.914Z,27.42
2019-06-20T05:47:13.492Z,27.46
2019-06-20T05:49:43.406Z,27.84
2019-06-20T05:52:15.975Z,27.93
2019-06-20T05:54:48.864Z,27.98
2019-06-20T05:57:21.138Z,28.19
2019-06-20T05:59:53.816Z,28.47
2019-06-20T06:02:26.930Z,28.35
2019-06-20T06:04:59.286Z,28.04
2019-06-20T06:07:31.855Z,28.44
2019-06-20T06:10:06.946Z,28.66
2019-06-20T06:12:39.146Z,28.76
2019-06-20T06:15:12.344Z,28.60
2019-06-20T06:17:44.924Z,28.61
2019-06-20T06:20:18.414Z,28.95
2019-06-20T06:22:51.093Z,29.05
2019-06-20T06:25:23.465Z,28.67
2019-06-20T06:27:56.244Z,29.11
2019-06-20T06:30:28.824Z,29.29
2019-06-20T06:33:01.213Z,29.51
2019-06-20T06:35:33.669Z,28.97
2019-06-20T06:38:06.041Z,29.38
2019-06-20T06:40:38.519Z,29.30
2019-06-20T06:43:11.196Z,29.21
2019-06-20T06:45:43.256Z,28.86
2019-06-20T06:48:15.545Z,29.04
2019-06-20T06:50:47.693Z,29.04
2019-06-20T06:53:20.737Z,28.85
2019-06-20T06:55:52.958Z,28.70
2019-06-20T06:58:25.457Z,28.98
2019-06-20T07:00:58.003Z,29.02
2019-06-20T07:03:30.929Z,28.95
2019-06-20T07:06:03.185Z,29.19
2019-06-20T07:08:36.454Z,29.38
2019-06-20T07:11:08.771Z,29.52
2019-06-20T07:13:40.890Z,29.30
2019-06-20T07:16:13.162Z,29.14
2019-06-20T07:18:45.627Z,29.26
2019-06-20T07:21:18.020Z,29.21
2019-06-20T07:23:50.474Z,29.44
2019-06-20T07:26:22.641Z,29.43
2019-06-20T07:28:54.913Z,29.54
2019-06-20T07:31:27.289Z,29.33
2019-06-20T07:33:59.758Z,29.31
2019-06-20T07:36:32.030Z,29.39
2019-06-20T07:39:06.144Z,29.66
2019-06-20T07:41:38.790Z,29.64
2019-06-20T07:44:11.094Z,29.22
2019-06-20T07:46:43.159Z,28.98
2019-06-20T07:49:15.526Z,29.31
2019-06-20T07:51:47.901Z,29.40
2019-06-20T07:54:20.620Z,29.40
2019-06-20T07:56:52.954Z,29.62
2019-06-20T07:59:25.523Z,29.69
2019-06-20T08:01:57.699Z,29.93
2019-06-20T08:04:30.574Z,29.91
2019-06-20T08:07:02.848Z,29.46
2019-06-20T08:09:44.710Z,29.71
2019-06-20T08:12:09.232Z,29.51
2019-06-20T08:14:41.666Z,29.24
2019-06-20T08:17:14.081Z,29.45
2019-06-20T08:19:46.653Z,29.81
2019-06-20T08:22:19.940Z,29.49
2019-06-20T08:24:53.803Z,29.62
2019-06-20T08:27:44.967Z,29.66
2019-06-20T08:30:18.058Z,29.88
2019-06-20T08:32:50.425Z,29.70
2019-06-20T08:35:24.240Z,30.08
2019-06-20T08:37:57.813Z,29.99
2019-06-20T08:40:33.247Z,30.18
2019-06-20T08:43:06.273Z,30.38
2019-06-20T08:45:41.064Z,30.31
2019-06-20T08:48:13.260Z,30.29
2019-06-20T08:50:45.628Z,30.39
2019-06-20T08:53:18.237Z,30.30
2019-06-20T08:55:50.998Z,30.42
2019-06-20T08:58:23.364Z,30.83
2019-06-20T09:00:57.111Z,30.40
2019-06-20T09:03:29.949Z,30.47
2019-06-20T09:08:34.900Z,30.65
2019-06-20T09:11:07.370Z,30.56
2019-06-20T09:13:40.682Z,30.71
2019-06-20T09:16:24.261Z,30.49
2019-06-20T09:18:46.841Z,30.54
2019-06-20T09:21:19.521Z,30.72
2019-06-20T09:23:52.900Z,30.92
2019-06-20T09:26:25.914Z,31.12
2019-06-20T09:28:59.351Z,30.93
2019-06-20T09:31:31.696Z,30.93
2019-06-20T09:34:05.555Z,31.09
2019-06-20T09:36:37.846Z,30.81
2019-06-20T09:39:10.428Z,30.80
2019-06-20T09:41:42.797Z,30.60
2019-06-20T09:44:15.063Z,30.91
2019-06-20T09:46:47.434Z,30.75
2019-06-20T09:49:19.615Z,30.84
2019-06-20T09:51:52.205Z,30.94
2019-06-20T09:54:24.869Z,31.05
2019-06-20T09:56:58.393Z,31.07
2019-06-20T09:59:30.738Z,31.19
2019-06-20T10:02:03.104Z,31.18
2019-06-20T10:04:35.780Z,31.28
2019-06-20T10:07:08.048Z,31.03
2019-06-20T10:09:40.325Z,30.88
2019-06-20T10:12:12.693Z,31.00
2019-06-20T10:14:46.327Z,30.99
2019-06-20T10:17:18.566Z,31.03
2019-06-20T10:19:52.024Z,31.18
2019-06-20T10:22:24.345Z,31.02
2019-06-20T10:24:57.938Z,30.90
2019-06-20T10:27:30.102Z,31.07
2019-06-20T10:30:13.822Z,31.18
2019-06-20T10:32:36.481Z,31.23
2019-06-20T10:35:09.177Z,31.25
2019-06-20T10:37:41.433Z,31.30
2019-06-20T10:40:14.716Z,31.54
2019-06-20T10:42:48.100Z,31.28
2019-06-20T10:45:23.499Z,31.03
2019-06-20T10:47:56.042Z,30.96
2019-06-20T10:50:28.618Z,31.08
2019-06-20T10:53:00.799Z,31.16
2019-06-20T10:55:33.563Z,31.19
2019-06-20T10:58:05.830Z,31.31
2019-06-20T11:00:37.904Z,31.19
2019-06-20T11:03:10.781Z,31.18
2019-06-20T11:05:43.833Z,31.29
2019-06-20T11:08:16.145Z,31.26
2019-06-20T11:10:49.288Z,31.61
2019-06-20T11:13:21.598Z,31.24
2019-06-20T11:15:54.281Z,31.50
2019-06-20T11:18:26.445Z,31.62
2019-06-20T11:20:59.036Z,31.52
2019-06-20T11:23:31.599Z,31.47
2019-06-20T11:26:03.975Z,31.69
2019-06-20T11:28:37.681Z,31.77
2019-06-20T11:31:10.458Z,31.46
2019-06-20T11:33:44.085Z,31.71
2019-06-20T11:36:16.647Z,31.55
2019-06-20T11:38:49.240Z,31.68
2019-06-20T11:41:21.477Z,31.65
2019-06-20T11:43:53.650Z,31.62
2019-06-20T11:46:25.712Z,31.56
2019-06-20T11:48:57.980Z,31.62
2019-06-20T11:51:30.248Z,31.59
2019-06-20T11:54:02.928Z,31.59
2019-06-20T11:56:35.300Z,31.41
2019-06-20T11:59:07.683Z,31.54
2019-06-20T12:01:41.230Z,31.46
2019-06-20T12:04:13.953Z,31.40
2019-06-20T12:06:47.167Z,31.61
2019-06-20T12:09:19.726Z,31.68
2019-06-20T12:11:52.196Z,31.65
2019-06-20T12:14:24.673Z,31.71
2019-06-20T12:16:56.736Z,31.47
2019-06-20T12:19:30.234Z,31.66
2019-06-20T12:22:02.562Z,31.55
2019-06-20T12:24:34.877Z,31.46
2019-06-20T12:27:07.245Z,31.42
2019-06-20T12:29:40.592Z,31.43
2019-06-20T12:32:13.015Z,31.49
2019-06-20T12:34:46.531Z,31.62
2019-06-20T12:37:19.805Z,31.65
2019-06-20T12:39:51.988Z,31.61
2019-06-20T12:42:24.547Z,31.55
2019-06-20T12:44:57.025Z,31.72
2019-06-20T12:47:29.398Z,31.63
2019-06-20T12:50:01.880Z,31.72
2019-06-20T12:52:34.242Z,31.75
2019-06-20T12:55:08.474Z,31.76
2019-06-20T12:57:42.103Z,31.55
2019-06-20T13:00:15.566Z,31.56
2019-06-20T13:02:48.037Z,31.45
2019-06-20T13:05:22.043Z,31.55
2019-06-20T13:07:54.925Z,31.77
2019-06-20T13:10:27.515Z,31.85
2019-06-20T13:13:00.096Z,31.68
2019-06-20T13:15:32.555Z,31.67
2019-06-20T13:18:04.829Z,31.67
2019-06-20T13:20:38.807Z,31.69
2019-06-20T13:23:10.795Z,31.82
2019-06-20T13:25:44.496Z,31.81
2019-06-20T13:28:16.771Z,31.78
2019-06-20T13:30:52.020Z,31.91
2019-06-20T13:33:22.975Z,31.84
2019-06-20T13:35:55.632Z,32.02
2019-06-20T13:38:27.690Z,32.01
2019-06-20T13:40:59.958Z,31.75
2019-06-20T13:43:32.337Z,31.81
2019-06-20T13:46:05.124Z,31.63
2019-06-20T13:48:38.962Z,31.53
2019-06-20T13:51:11.397Z,31.67
2019-06-20T13:53:44.317Z,31.74
2019-06-20T13:56:16.694Z,31.74
2019-06-20T13:58:49.021Z,31.73
2019-06-20T14:01:21.542Z,31.82
2019-06-20T14:03:54.337Z,31.81
2019-06-20T14:06:26.553Z,31.65
2019-06-20T14:08:58.920Z,31.81
2019-06-20T14:11:31.392Z,31.78
2019-06-20T14:14:03.894Z,31.66
2019-06-20T14:16:36.030Z,31.68
2019-06-20T14:19:08.620Z,31.69
2019-06-20T14:21:42.495Z,31.80
2019-06-20T14:24:15.502Z,31.91
2019-06-20T14:26:48.221Z,31.67
2019-06-20T14:29:20.558Z,31.63
2019-06-20T14:31:53.769Z,31.76
2019-06-20T14:34:26.036Z,31.73
2019-06-20T14:36:58.695Z,31.55
2019-06-20T14:39:34.133Z,31.58
2019-06-20T14:42:05.497Z,31.66
2019-06-20T14:44:38.166Z,31.66
2019-06-20T14:47:11.106Z,31.64
2019-06-20T14:49:43.730Z,31.68
2019-06-20T14:52:16.098Z,31.67
2019-06-20T14:54:49.878Z,31.69
2019-06-20T14:57:23.097Z,31.70
2019-06-20T14:59:55.468Z,31.63
2019-06-20T15:02:37.980Z,31.52
2019-06-20T15:05:02.380Z,31.63
2019-06-20T15:07:34.943Z,31.67
2019-06-20T15:10:07.930Z,31.47
2019-06-20T15:12:40.095Z,31.50
2019-06-20T15:15:13.299Z,31.64
2019-06-20T15:17:48.805Z,31.47
2019-06-20T15:20:20.077Z,31.55
2019-06-20T15:22:52.837Z,31.64
2019-06-20T15:25:25.950Z,31.66
2019-06-20T15:27:59.187Z,31.53
2019-06-20T15:30:31.610Z,31.63
2019-06-20T15:33:10.059Z,31.64
2019-06-20T15:35:37.992Z,31.60
2019-06-20T15:38:10.478Z,31.56
2019-06-20T15:40:43.056Z,31.55
2019-06-20T15:43:15.421Z,31.51
2019-06-20T15:45:48.984Z,31.45
2019-06-20T15:48:21.700Z,31.43
2019-06-20T15:50:54.171Z,31.51
2019-06-20T15:53:26.642Z,31.44
2019-06-20T15:55:58.816Z,31.42
2019-06-20T15:58:31.291Z,31.43
2019-06-20T16:01:03.762Z,31.26
2019-06-20T16:03:36.485Z,31.25
2019-06-20T16:06:08.639Z,31.14
2019-06-20T16:08:41.186Z,31.06
2019-06-20T16:11:13.565Z,31.14
2019-06-20T16:13:46.131Z,31.13
2019-06-20T16:16:18.710Z,31.19
2019-06-20T16:18:50.979Z,31.06
2019-06-20T16:21:23.245Z,30.93
2019-06-20T16:23:55.721Z,30.90
2019-06-20T16:26:29.012Z,30.82
2019-06-20T16:29:01.491Z,30.76
2019-06-20T16:31:33.963Z,30.65
2019-06-20T16:34:06.437Z,30.59
2019-06-20T16:36:39.219Z,30.64
2019-06-20T16:39:11.395Z,30.71
2019-06-20T16:41:43.967Z,30.52
2019-06-20T16:44:16.234Z,30.37
2019-06-20T16:46:48.611Z,30.27
2019-06-20T16:49:20.979Z,30.19
2019-06-20T16:51:54.171Z,30.14
2019-06-20T16:54:26.779Z,30.03
2019-06-20T16:56:59.432Z,29.98
2019-06-20T16:59:31.800Z,29.85
2019-06-20T17:02:04.170Z,29.77
2019-06-20T17:04:36.748Z,29.65
2019-06-20T17:07:08.915Z,29.56
2019-06-20T17:09:41.185Z,29.58
2019-06-20T17:12:13.611Z,29.47
2019-06-20T17:14:45.926Z,29.46
2019-06-20T17:17:18.198Z,29.36
2019-06-20T17:19:50.469Z,29.30
2019-06-20T17:22:23.045Z,29.21
2019-06-20T17:24:55.310Z,29.19
2019-06-20T17:27:27.793Z,29.10
2019-06-20T17:30:00.055Z,29.05
2019-06-20T17:32:32.553Z,28.99
2019-06-20T17:35:07.470Z,28.90
2019-06-20T17:37:40.557Z,28.88
2019-06-20T17:40:15.690Z,28.80
2019-06-20T17:42:47.963Z,28.71
2019-06-20T17:45:21.909Z,28.65
2019-06-20T17:47:58.856Z,28.57
2019-06-20T17:50:36.204Z,28.46
2019-06-20T17:53:09.224Z,28.39
2019-06-20T17:55:42.428Z,28.29
2019-06-20T17:58:14.785Z,28.19
2019-06-20T18:00:47.574Z,28.11
2019-06-20T18:03:20.359Z,28.00
2019-06-20T18:05:53.128Z,27.94
2019-06-20T18:08:25.607Z,27.84
2019-06-20T18:10:57.976Z,27.81
2019-06-20T18:13:30.449Z,27.82
2019-06-20T18:16:02.515Z,27.78
2019-06-20T18:18:34.993Z,27.67
2019-06-20T18:21:07.375Z,27.66
2019-06-20T18:23:39.896Z,27.61
2019-06-20T18:26:12.513Z,27.54
2019-06-20T18:28:44.885Z,27.52
2019-06-20T18:31:17.153Z,27.48
2019-06-20T18:33:49.429Z,27.49
2019-06-20T18:36:21.812Z,27.44
2019-06-20T18:38:54.992Z,27.38
2019-06-20T18:41:27.367Z,27.30
2019-06-20T18:43:59.730Z,27.26
2019-06-20T18:46:32.207Z,27.17
2019-06-20T18:49:04.782Z,27.22
2019-06-20T18:51:37.060Z,27.08
2019-06-20T18:54:09.952Z,27.02
2019-06-20T18:56:42.212Z,27.09
2019-06-20T18:59:14.594Z,27.05
2019-06-20T19:01:46.949Z,26.93
2019-06-20T19:04:19.531Z,26.80
2019-06-20T19:06:51.797Z,26.71
2019-06-20T19:09:24.883Z,26.61
2019-06-20T19:11:58.280Z,26.58
2019-06-20T19:14:30.657Z,26.49
2019-06-20T19:17:02.934Z,26.49
2019-06-20T19:19:35.202Z,26.41
2019-06-20T19:22:07.974Z,26.31
2019-06-20T19:24:40.446Z,26.23
2019-06-20T19:27:12.920Z,26.14
2019-06-20T19:29:45.403Z,26.08
2019-06-20T19:32:17.584Z,26.03
2019-06-20T19:35:01.289Z,26.01
2019-06-20T19:37:23.845Z,25.94
2019-06-20T19:39:56.213Z,25.86
2019-06-20T19:42:28.587Z,25.83
2019-06-20T19:45:00.853Z,25.84
2019-06-20T19:47:33.127Z,25.79
2019-06-20T19:50:07.852Z,25.75
2019-06-20T19:52:40.468Z,25.72
2019-06-20T19:55:13.678Z,25.67
2019-06-20T19:57:45.907Z,25.58
2019-06-20T20:00:20.020Z,25.44
2019-06-20T20:02:52.526Z,25.34
2019-06-20T20:05:25.155Z,25.27
2019-06-20T20:07:57.539Z,25.19
2019-06-20T20:10:46.903Z,25.14
2019-06-20T20:13:19.487Z,25.17
2019-06-20T20:15:51.702Z,25.14
2019-06-20T20:18:24.423Z,25.19
2019-06-20T20:20:56.901Z,25.16
2019-06-20T20:23:29.089Z,25.08
2019-06-20T20:26:01.439Z,25.00
2019-06-20T20:28:33.720Z,24.96
2019-06-20T20:31:06.189Z,24.88
2019-06-20T20:33:38.456Z,24.84
2019-06-20T20:36:24.051Z,24.88
2019-06-20T20:38:44.839Z,24.83
2019-06-20T20:41:17.309Z,24.77
2019-06-20T20:43:49.887Z,24.70
2019-06-20T20:46:22.054Z,24.67
2019-06-20T20:48:54.432Z,24.65
2019-06-20T20:51:28.638Z,24.67
2019-06-20T20:54:01.521Z,24.62
2019-06-20T20:56:33.901Z,24.61
2019-06-20T20:59:07.188Z,24.58
2019-06-20T21:01:39.927Z,24.68
2019-06-20T21:04:12.673Z,24.59
2019-06-20T21:06:45.025Z,24.57
2019-06-20T21:09:17.295Z,24.57
2019-06-20T21:11:49.457Z,24.63
2019-06-20T21:14:21.827Z,24.53
2019-06-20T21:16:54.921Z,24.52
2019-06-20T21:19:27.291Z,24.52
2019-06-20T21:21:59.659Z,24.40
2019-06-20T21:24:31.931Z,24.39
2019-06-20T21:27:04.512Z,24.41
2019-06-20T21:29:36.986Z,24.34
2019-06-20T21:32:09.370Z,24.32
2019-06-20T21:34:41.619Z,24.31
2019-06-20T21:37:13.998Z,24.19
2019-06-20T21:39:46.676Z,24.08
2019-06-20T21:42:23.641Z,23.98
2019-06-20T21:44:56.228Z,23.92
2019-06-20T21:47:28.706Z,23.79
2019-06-20T21:50:01.175Z,23.71
2019-06-20T21:52:33.579Z,23.70
2019-06-20T21:55:07.203Z,23.59
2019-06-20T21:57:39.599Z,23.56
2019-06-20T22:00:40.573Z,23.54
2019-06-20T22:03:14.991Z,23.62
2019-06-20T22:05:47.563Z,23.46
2019-06-20T22:08:19.732Z,23.40
2019-06-20T22:10:52.516Z,23.35
2019-06-20T22:13:24.583Z,23.32
2019-06-20T22:15:57.356Z,23.32
2019-06-20T22:18:29.533Z,23.25
2019-06-20T22:21:02.009Z,23.21
2019-06-20T22:23:34.178Z,23.16
2019-06-20T22:26:06.440Z,23.10
2019-06-20T22:28:38.912Z,22.97
2019-06-20T22:31:11.597Z,22.90
2019-06-20T22:33:44.375Z,22.86
2019-06-20T22:36:16.758Z,22.81
2019-06-20T22:38:49.222Z,22.74
2019-06-20T22:41:21.385Z,22.68
2019-06-20T22:43:53.759Z,22.63
2019-06-20T22:46:25.926Z,22.56
2019-06-20T22:48:58.405Z,22.48
2019-06-20T22:51:30.884Z,22.43
2019-06-20T22:54:03.798Z,22.45
2019-06-20T22:56:36.131Z,22.43
2019-06-20T22:59:08.397Z,22.44
2019-06-20T23:01:40.975Z,22.38
2019-06-20T23:04:14.881Z,22.40
2019-06-20T23:06:56.184Z,22.41
2019-06-20T23:09:21.067Z,22.38
2019-06-20T23:11:53.249Z,22.34
2019-06-20T23:14:25.397Z,22.30
2019-06-20T23:16:57.982Z,22.22
2019-06-20T23:19:30.447Z,22.14
2019-06-20T23:22:02.922Z,21.96
2019-06-20T23:24:35.188Z,21.98
2019-06-20T23:27:07.459Z,21.97
2019-06-20T23:29:39.934Z,21.97
2019-06-20T23:32:12.001Z,21.86
2019-06-20T23:34:44.163Z,21.84
2019-06-20T23:37:16.342Z,21.79
2019-06-20T23:39:48.912Z,21.77
2019-06-20T23:42:21.486Z,21.79
2019-06-20T23:44:53.658Z,21.71
2019-06-20T23:47:26.022Z,21.68
2019-06-20T23:49:58.499Z,21.74
2019-06-20T23:52:32.411Z,21.74
2019-06-20T23:55:06.875Z,21.72
2019-06-20T23:57:39.099Z,21.73
